sensor_id;sensor_type;location;lat;lon;timestamp;P1;durP1;ratioP1;P2;durP2;ratioP2
74152;SDS011;62505;46.070;14.492;2023-11-21T00:01:42;13.52;;;8.25;;
74152;SDS011;62505;46.070;14.492;2023-11-21T00:04:09;14.43;;;8.00;;
74152;SDS011;62505;46.070;14.492;2023-11-21T00:06:36;12.93;;;8.10;;
74152;SDS011;62505;46.070;14.492;2023-11-21T00:09:05;12.50;;;7.85;;
74152;SDS011;62505;46.070;14.492;2023-11-21T00:11:33;14.40;;;8.63;;
74152;SDS011;62505;46.070;14.492;2023-11-21T00:14:00;12.98;;;7.53;;
74152;SDS011;62505;46.070;14.492;2023-11-21T00:16:28;13.85;;;8.15;;
74152;SDS011;62505;46.070;14.492;2023-11-21T00:18:55;13.88;;;6.88;;
74152;SDS011;62505;46.070;14.492;2023-11-21T00:21:22;15.13;;;8.35;;
74152;SDS011;62505;46.070;14.492;2023-11-21T00:23:49;10.57;;;8.13;;
74152;SDS011;62505;46.070;14.492;2023-11-21T00:26:17;14.77;;;7.72;;
74152;SDS011;62505;46.070;14.492;2023-11-21T00:28:45;14.35;;;8.20;;
74152;SDS011;62505;46.070;14.492;2023-11-21T00:31:12;14.27;;;8.15;;
74152;SDS011;62505;46.070;14.492;2023-11-21T00:33:38;14.25;;;7.95;;
74152;SDS011;62505;46.070;14.492;2023-11-21T00:36:06;13.48;;;8.00;;
74152;SDS011;62505;46.070;14.492;2023-11-21T00:38:34;12.95;;;8.27;;
74152;SDS011;62505;46.070;14.492;2023-11-21T00:41:01;12.10;;;8.00;;
74152;SDS011;62505;46.070;14.492;2023-11-21T00:43:30;11.60;;;7.97;;
74152;SDS011;62505;46.070;14.492;2023-11-21T00:45:58;11.65;;;8.10;;
74152;SDS011;62505;46.070;14.492;2023-11-21T00:48:25;15.13;;;8.82;;
74152;SDS011;62505;46.070;14.492;2023-11-21T00:50:52;11.60;;;8.23;;
74152;SDS011;62505;46.070;14.492;2023-11-21T00:53:21;12.35;;;8.23;;
74152;SDS011;62505;46.070;14.492;2023-11-21T00:55:48;12.93;;;7.82;;
74152;SDS011;62505;46.070;14.492;2023-11-21T00:58:16;10.27;;;7.25;;
74152;SDS011;62505;46.070;14.492;2023-11-21T01:00:44;15.20;;;8.18;;
74152;SDS011;62505;46.070;14.492;2023-11-21T01:03:13;11.68;;;7.50;;
74152;SDS011;62505;46.070;14.492;2023-11-21T01:05:40;10.93;;;7.68;;
74152;SDS011;62505;46.070;14.492;2023-11-21T01:08:07;13.00;;;7.93;;
74152;SDS011;62505;46.070;14.492;2023-11-21T01:10:34;10.90;;;8.02;;
74152;SDS011;62505;46.070;14.492;2023-11-21T01:13:02;10.80;;;7.70;;
74152;SDS011;62505;46.070;14.492;2023-11-21T01:15:31;14.50;;;7.75;;
74152;SDS011;62505;46.070;14.492;2023-11-21T01:17:59;12.50;;;8.05;;
74152;SDS011;62505;46.070;14.492;2023-11-21T01:20:26;12.05;;;8.50;;
74152;SDS011;62505;46.070;14.492;2023-11-21T01:22:53;11.88;;;7.78;;
74152;SDS011;62505;46.070;14.492;2023-11-21T01:25:20;11.98;;;8.05;;
74152;SDS011;62505;46.070;14.492;2023-11-21T01:27:47;14.68;;;7.88;;
74152;SDS011;62505;46.070;14.492;2023-11-21T01:30:14;13.93;;;8.48;;
74152;SDS011;62505;46.070;14.492;2023-11-21T01:32:41;13.10;;;7.57;;
74152;SDS011;62505;46.070;14.492;2023-11-21T01:35:10;13.40;;;7.90;;
74152;SDS011;62505;46.070;14.492;2023-11-21T01:37:37;11.63;;;7.97;;
74152;SDS011;62505;46.070;14.492;2023-11-21T01:40:05;15.57;;;7.85;;
74152;SDS011;62505;46.070;14.492;2023-11-21T01:42:36;11.13;;;7.68;;
74152;SDS011;62505;46.070;14.492;2023-11-21T01:45:03;10.88;;;8.07;;
74152;SDS011;62505;46.070;14.492;2023-11-21T01:47:31;10.52;;;7.20;;
74152;SDS011;62505;46.070;14.492;2023-11-21T01:50:01;13.60;;;8.40;;
74152;SDS011;62505;46.070;14.492;2023-11-21T01:52:31;13.68;;;8.27;;
74152;SDS011;62505;46.070;14.492;2023-11-21T01:54:58;13.20;;;8.25;;
74152;SDS011;62505;46.070;14.492;2023-11-21T01:57:26;14.60;;;7.55;;
74152;SDS011;62505;46.070;14.492;2023-11-21T01:59:54;12.68;;;7.63;;
74152;SDS011;62505;46.070;14.492;2023-11-21T02:02:22;12.63;;;7.65;;
74152;SDS011;62505;46.070;14.492;2023-11-21T02:04:49;14.35;;;8.90;;
74152;SDS011;62505;46.070;14.492;2023-11-21T02:07:16;11.90;;;7.43;;
74152;SDS011;62505;46.070;14.492;2023-11-21T02:09:45;12.63;;;7.95;;
74152;SDS011;62505;46.070;14.492;2023-11-21T02:12:13;14.63;;;8.13;;
74152;SDS011;62505;46.070;14.492;2023-11-21T02:14:40;12.98;;;7.32;;
74152;SDS011;62505;46.070;14.492;2023-11-21T02:17:07;13.10;;;7.60;;
74152;SDS011;62505;46.070;14.492;2023-11-21T02:19:34;10.75;;;8.05;;
74152;SDS011;62505;46.070;14.492;2023-11-21T02:22:01;10.93;;;7.40;;
74152;SDS011;62505;46.070;14.492;2023-11-21T02:24:32;12.57;;;8.10;;
74152;SDS011;62505;46.070;14.492;2023-11-21T02:26:59;13.55;;;8.20;;
74152;SDS011;62505;46.070;14.492;2023-11-21T02:29:26;10.75;;;8.15;;
74152;SDS011;62505;46.070;14.492;2023-11-21T02:31:54;11.10;;;8.02;;
74152;SDS011;62505;46.070;14.492;2023-11-21T02:34:21;12.82;;;7.47;;
74152;SDS011;62505;46.070;14.492;2023-11-21T02:36:50;13.70;;;7.45;;
74152;SDS011;62505;46.070;14.492;2023-11-21T02:39:17;12.52;;;7.72;;
74152;SDS011;62505;46.070;14.492;2023-11-21T02:41:48;11.63;;;7.63;;
74152;SDS011;62505;46.070;14.492;2023-11-21T02:44:15;13.82;;;7.82;;
74152;SDS011;62505;46.070;14.492;2023-11-21T02:46:42;15.27;;;8.85;;
74152;SDS011;62505;46.070;14.492;2023-11-21T02:49:09;15.73;;;8.05;;
74152;SDS011;62505;46.070;14.492;2023-11-21T02:51:37;10.63;;;7.60;;
74152;SDS011;62505;46.070;14.492;2023-11-21T02:54:04;10.20;;;7.20;;
74152;SDS011;62505;46.070;14.492;2023-11-21T02:56:33;11.63;;;7.30;;
74152;SDS011;62505;46.070;14.492;2023-11-21T02:59:01;12.02;;;7.93;;
74152;SDS011;62505;46.070;14.492;2023-11-21T03:01:28;13.82;;;8.07;;
74152;SDS011;62505;46.070;14.492;2023-11-21T03:03:55;9.48;;;6.85;;
74152;SDS011;62505;46.070;14.492;2023-11-21T03:06:22;12.18;;;8.02;;
74152;SDS011;62505;46.070;14.492;2023-11-21T03:08:49;11.10;;;7.97;;
74152;SDS011;62505;46.070;14.492;2023-11-21T03:11:17;10.25;;;7.05;;
74152;SDS011;62505;46.070;14.492;2023-11-21T03:13:44;11.95;;;7.20;;
74152;SDS011;62505;46.070;14.492;2023-11-21T03:16:12;10.43;;;7.22;;
74152;SDS011;62505;46.070;14.492;2023-11-21T03:18:39;12.60;;;8.77;;
74152;SDS011;62505;46.070;14.492;2023-11-21T03:21:07;12.68;;;7.75;;
74152;SDS011;62505;46.070;14.492;2023-11-21T03:23:34;10.52;;;7.82;;
74152;SDS011;62505;46.070;14.492;2023-11-21T03:26:01;12.07;;;7.35;;
74152;SDS011;62505;46.070;14.492;2023-11-21T03:28:28;13.35;;;7.60;;
74152;SDS011;62505;46.070;14.492;2023-11-21T03:30:56;10.13;;;7.50;;
74152;SDS011;62505;46.070;14.492;2023-11-21T03:33:24;10.75;;;7.43;;
74152;SDS011;62505;46.070;14.492;2023-11-21T03:35:51;11.75;;;7.03;;
74152;SDS011;62505;46.070;14.492;2023-11-21T03:38:18;11.38;;;7.78;;
74152;SDS011;62505;46.070;14.492;2023-11-21T03:40:45;12.25;;;7.72;;
74152;SDS011;62505;46.070;14.492;2023-11-21T03:43:13;9.05;;;7.13;;
74152;SDS011;62505;46.070;14.492;2023-11-21T03:45:40;11.93;;;8.00;;
74152;SDS011;62505;46.070;14.492;2023-11-21T03:48:07;13.50;;;7.60;;
74152;SDS011;62505;46.070;14.492;2023-11-21T03:50:36;11.35;;;7.57;;
74152;SDS011;62505;46.070;14.492;2023-11-21T03:53:02;12.60;;;7.78;;
74152;SDS011;62505;46.070;14.492;2023-11-21T03:55:29;11.65;;;7.53;;
74152;SDS011;62505;46.070;14.492;2023-11-21T03:57:57;13.68;;;7.15;;
74152;SDS011;62505;46.070;14.492;2023-11-21T04:00:24;11.50;;;7.38;;
74152;SDS011;62505;46.070;14.492;2023-11-21T04:02:52;12.45;;;7.45;;
74152;SDS011;62505;46.070;14.492;2023-11-21T04:05:19;11.48;;;7.78;;
74152;SDS011;62505;46.070;14.492;2023-11-21T04:07:49;11.10;;;7.10;;
74152;SDS011;62505;46.070;14.492;2023-11-21T04:10:16;12.25;;;7.80;;
74152;SDS011;62505;46.070;14.492;2023-11-21T04:12:44;13.05;;;7.18;;
74152;SDS011;62505;46.070;14.492;2023-11-21T04:15:11;10.20;;;6.85;;
74152;SDS011;62505;46.070;14.492;2023-11-21T04:17:39;11.73;;;7.68;;
74152;SDS011;62505;46.070;14.492;2023-11-21T04:20:07;12.70;;;8.07;;
74152;SDS011;62505;46.070;14.492;2023-11-21T04:22:36;10.20;;;7.13;;
74152;SDS011;62505;46.070;14.492;2023-11-21T04:25:08;13.00;;;7.47;;
74152;SDS011;62505;46.070;14.492;2023-11-21T04:27:36;13.60;;;7.45;;
74152;SDS011;62505;46.070;14.492;2023-11-21T04:30:03;9.82;;;7.00;;
74152;SDS011;62505;46.070;14.492;2023-11-21T04:32:31;11.27;;;7.03;;
74152;SDS011;62505;46.070;14.492;2023-11-21T04:34:58;10.23;;;7.20;;
74152;SDS011;62505;46.070;14.492;2023-11-21T04:37:25;12.63;;;7.05;;
74152;SDS011;62505;46.070;14.492;2023-11-21T04:39:52;10.30;;;7.60;;
74152;SDS011;62505;46.070;14.492;2023-11-21T04:42:21;9.35;;;6.97;;
74152;SDS011;62505;46.070;14.492;2023-11-21T04:44:48;11.25;;;7.20;;
74152;SDS011;62505;46.070;14.492;2023-11-21T04:47:15;10.82;;;7.05;;
74152;SDS011;62505;46.070;14.492;2023-11-21T04:49:45;12.95;;;7.00;;
74152;SDS011;62505;46.070;14.492;2023-11-21T04:52:13;12.63;;;7.38;;
74152;SDS011;62505;46.070;14.492;2023-11-21T04:54:40;10.55;;;7.00;;
74152;SDS011;62505;46.070;14.492;2023-11-21T04:57:08;14.10;;;7.50;;
74152;SDS011;62505;46.070;14.492;2023-11-21T04:59:36;11.02;;;6.90;;
74152;SDS011;62505;46.070;14.492;2023-11-21T05:02:03;11.43;;;6.80;;
74152;SDS011;62505;46.070;14.492;2023-11-21T05:04:30;11.23;;;7.40;;
74152;SDS011;62505;46.070;14.492;2023-11-21T05:06:58;10.77;;;7.05;;
74152;SDS011;62505;46.070;14.492;2023-11-21T05:09:25;10.25;;;6.72;;
74152;SDS011;62505;46.070;14.492;2023-11-21T05:11:53;12.02;;;7.05;;
74152;SDS011;62505;46.070;14.492;2023-11-21T05:14:20;16.33;;;6.90;;
74152;SDS011;62505;46.070;14.492;2023-11-21T05:16:49;14.98;;;7.68;;
74152;SDS011;62505;46.070;14.492;2023-11-21T05:19:17;14.63;;;7.25;;
74152;SDS011;62505;46.070;14.492;2023-11-21T05:21:43;13.57;;;7.32;;
74152;SDS011;62505;46.070;14.492;2023-11-21T05:24:12;14.02;;;7.15;;
74152;SDS011;62505;46.070;14.492;2023-11-21T05:26:39;14.05;;;7.72;;
74152;SDS011;62505;46.070;14.492;2023-11-21T05:29:06;15.52;;;7.50;;
74152;SDS011;62505;46.070;14.492;2023-11-21T05:31:34;14.38;;;7.30;;
74152;SDS011;62505;46.070;14.492;2023-11-21T05:34:02;13.25;;;7.70;;
74152;SDS011;62505;46.070;14.492;2023-11-21T05:36:30;12.52;;;7.50;;
74152;SDS011;62505;46.070;14.492;2023-11-21T05:38:57;13.07;;;7.28;;
74152;SDS011;62505;46.070;14.492;2023-11-21T05:41:24;14.38;;;7.53;;
74152;SDS011;62505;46.070;14.492;2023-11-21T05:43:52;15.30;;;7.43;;
74152;SDS011;62505;46.070;14.492;2023-11-21T05:46:19;14.48;;;6.90;;
74152;SDS011;62505;46.070;14.492;2023-11-21T05:48:46;16.63;;;7.70;;
74152;SDS011;62505;46.070;14.492;2023-11-21T05:51:15;14.32;;;7.80;;
74152;SDS011;62505;46.070;14.492;2023-11-21T05:53:42;12.40;;;7.50;;
74152;SDS011;62505;46.070;14.492;2023-11-21T05:56:09;11.10;;;6.78;;
74152;SDS011;62505;46.070;14.492;2023-11-21T05:58:36;12.75;;;6.93;;
74152;SDS011;62505;46.070;14.492;2023-11-21T06:01:05;14.38;;;7.45;;
74152;SDS011;62505;46.070;14.492;2023-11-21T06:03:32;15.90;;;7.60;;
74152;SDS011;62505;46.070;14.492;2023-11-21T06:05:59;15.27;;;7.47;;
74152;SDS011;62505;46.070;14.492;2023-11-21T06:08:28;15.15;;;7.45;;
74152;SDS011;62505;46.070;14.492;2023-11-21T06:10:55;12.57;;;7.00;;
74152;SDS011;62505;46.070;14.492;2023-11-21T06:13:22;15.52;;;7.82;;
74152;SDS011;62505;46.070;14.492;2023-11-21T06:15:49;18.63;;;7.93;;
74152;SDS011;62505;46.070;14.492;2023-11-21T06:18:16;15.20;;;7.78;;
74152;SDS011;62505;46.070;14.492;2023-11-21T06:20:44;11.70;;;8.05;;
74152;SDS011;62505;46.070;14.492;2023-11-21T06:23:11;13.02;;;7.60;;
74152;SDS011;62505;46.070;14.492;2023-11-21T06:25:40;16.70;;;8.25;;
74152;SDS011;62505;46.070;14.492;2023-11-21T06:28:07;13.23;;;7.45;;
74152;SDS011;62505;46.070;14.492;2023-11-21T06:30:35;13.40;;;7.38;;
74152;SDS011;62505;46.070;14.492;2023-11-21T06:33:03;13.65;;;7.57;;
74152;SDS011;62505;46.070;14.492;2023-11-21T06:35:31;11.30;;;7.38;;
74152;SDS011;62505;46.070;14.492;2023-11-21T06:38:00;13.20;;;6.93;;
74152;SDS011;62505;46.070;14.492;2023-11-21T06:40:28;16.15;;;8.20;;
74152;SDS011;62505;46.070;14.492;2023-11-21T06:42:56;12.43;;;7.63;;
74152;SDS011;62505;46.070;14.492;2023-11-21T06:45:23;13.43;;;7.78;;
74152;SDS011;62505;46.070;14.492;2023-11-21T06:47:50;13.10;;;7.75;;
74152;SDS011;62505;46.070;14.492;2023-11-21T06:50:18;15.65;;;7.15;;
74152;SDS011;62505;46.070;14.492;2023-11-21T06:52:45;11.55;;;6.95;;
74152;SDS011;62505;46.070;14.492;2023-11-21T06:55:12;12.52;;;7.30;;
74152;SDS011;62505;46.070;14.492;2023-11-21T06:57:39;18.63;;;8.02;;
74152;SDS011;62505;46.070;14.492;2023-11-21T07:00:08;14.90;;;7.47;;
74152;SDS011;62505;46.070;14.492;2023-11-21T07:02:36;13.50;;;7.63;;
74152;SDS011;62505;46.070;14.492;2023-11-21T07:05:04;11.40;;;7.00;;
74152;SDS011;62505;46.070;14.492;2023-11-21T07:07:31;11.88;;;6.85;;
74152;SDS011;62505;46.070;14.492;2023-11-21T07:10:00;11.65;;;7.60;;
74152;SDS011;62505;46.070;14.492;2023-11-21T07:12:28;14.60;;;8.27;;
74152;SDS011;62505;46.070;14.492;2023-11-21T07:14:56;12.57;;;7.10;;
74152;SDS011;62505;46.070;14.492;2023-11-21T07:17:24;13.63;;;8.30;;
74152;SDS011;62505;46.070;14.492;2023-11-21T07:19:51;11.50;;;7.20;;
74152;SDS011;62505;46.070;14.492;2023-11-21T07:22:18;10.40;;;7.35;;
74152;SDS011;62505;46.070;14.492;2023-11-21T07:24:47;12.23;;;7.25;;
74152;SDS011;62505;46.070;14.492;2023-11-21T07:27:15;14.50;;;7.25;;
74152;SDS011;62505;46.070;14.492;2023-11-21T07:29:42;13.10;;;7.30;;
74152;SDS011;62505;46.070;14.492;2023-11-21T07:32:10;13.60;;;6.95;;
74152;SDS011;62505;46.070;14.492;2023-11-21T07:34:39;12.07;;;6.82;;
74152;SDS011;62505;46.070;14.492;2023-11-21T07:37:06;13.18;;;7.22;;
74152;SDS011;62505;46.070;14.492;2023-11-21T07:39:34;10.85;;;6.93;;
74152;SDS011;62505;46.070;14.492;2023-11-21T07:42:01;15.48;;;7.38;;
74152;SDS011;62505;46.070;14.492;2023-11-21T07:44:29;10.00;;;6.78;;
74152;SDS011;62505;46.070;14.492;2023-11-21T07:46:56;11.73;;;7.22;;
74152;SDS011;62505;46.070;14.492;2023-11-21T07:49:23;15.10;;;7.13;;
74152;SDS011;62505;46.070;14.492;2023-11-21T07:51:53;12.43;;;7.45;;
74152;SDS011;62505;46.070;14.492;2023-11-21T07:54:20;13.75;;;7.05;;
74152;SDS011;62505;46.070;14.492;2023-11-21T07:56:47;15.15;;;7.85;;
74152;SDS011;62505;46.070;14.492;2023-11-21T07:59:14;10.27;;;6.75;;
74152;SDS011;62505;46.070;14.492;2023-11-21T08:01:42;10.50;;;6.95;;
74152;SDS011;62505;46.070;14.492;2023-11-21T08:04:10;9.15;;;6.40;;
74152;SDS011;62505;46.070;14.492;2023-11-21T08:06:38;12.75;;;7.43;;
74152;SDS011;62505;46.070;14.492;2023-11-21T08:09:08;12.68;;;7.80;;
74152;SDS011;62505;46.070;14.492;2023-11-21T08:11:35;12.77;;;7.40;;
74152;SDS011;62505;46.070;14.492;2023-11-21T08:14:04;16.52;;;7.75;;
74152;SDS011;62505;46.070;14.492;2023-11-21T08:16:31;15.65;;;8.65;;
74152;SDS011;62505;46.070;14.492;2023-11-21T08:18:58;15.73;;;7.43;;
74152;SDS011;62505;46.070;14.492;2023-11-21T08:21:26;18.70;;;8.02;;
74152;SDS011;62505;46.070;14.492;2023-11-21T08:23:54;21.38;;;8.77;;
74152;SDS011;62505;46.070;14.492;2023-11-21T08:26:23;18.83;;;7.70;;
74152;SDS011;62505;46.070;14.492;2023-11-21T08:28:50;22.00;;;8.55;;
74152;SDS011;62505;46.070;14.492;2023-11-21T08:31:23;21.20;;;8.90;;
74152;SDS011;62505;46.070;14.492;2023-11-21T08:33:50;20.23;;;7.95;;
74152;SDS011;62505;46.070;14.492;2023-11-21T08:36:20;15.93;;;8.10;;
74152;SDS011;62505;46.070;14.492;2023-11-21T08:38:48;14.13;;;7.15;;
74152;SDS011;62505;46.070;14.492;2023-11-21T08:41:15;17.40;;;8.20;;
74152;SDS011;62505;46.070;14.492;2023-11-21T08:43:43;19.83;;;7.78;;
74152;SDS011;62505;46.070;14.492;2023-11-21T08:46:10;15.23;;;8.05;;
74152;SDS011;62505;46.070;14.492;2023-11-21T08:48:37;30.55;;;8.20;;
74152;SDS011;62505;46.070;14.492;2023-11-21T08:51:04;14.32;;;7.55;;
74152;SDS011;62505;46.070;14.492;2023-11-21T08:53:32;14.85;;;7.53;;
74152;SDS011;62505;46.070;14.492;2023-11-21T08:55:59;16.63;;;8.25;;
74152;SDS011;62505;46.070;14.492;2023-11-21T08:58:26;18.13;;;8.23;;
74152;SDS011;62505;46.070;14.492;2023-11-21T09:00:54;21.65;;;7.70;;
74152;SDS011;62505;46.070;14.492;2023-11-21T09:03:21;13.60;;;7.80;;
74152;SDS011;62505;46.070;14.492;2023-11-21T09:05:48;18.77;;;8.57;;
74152;SDS011;62505;46.070;14.492;2023-11-21T09:08:15;15.35;;;7.53;;
74152;SDS011;62505;46.070;14.492;2023-11-21T09:10:42;19.05;;;8.05;;
74152;SDS011;62505;46.070;14.492;2023-11-21T09:13:12;21.90;;;8.13;;
74152;SDS011;62505;46.070;14.492;2023-11-21T09:15:41;23.45;;;8.35;;
74152;SDS011;62505;46.070;14.492;2023-11-21T09:18:10;21.30;;;8.05;;
74152;SDS011;62505;46.070;14.492;2023-11-21T09:20:37;21.33;;;7.22;;
74152;SDS011;62505;46.070;14.492;2023-11-21T09:23:04;24.48;;;8.82;;
74152;SDS011;62505;46.070;14.492;2023-11-21T09:25:32;20.85;;;8.00;;
74152;SDS011;62505;46.070;14.492;2023-11-21T09:27:59;18.75;;;9.05;;
74152;SDS011;62505;46.070;14.492;2023-11-21T09:30:26;23.38;;;8.35;;
74152;SDS011;62505;46.070;14.492;2023-11-21T09:32:54;28.23;;;8.65;;
74152;SDS011;62505;46.070;14.492;2023-11-21T09:35:22;20.75;;;8.48;;
74152;SDS011;62505;46.070;14.492;2023-11-21T09:37:49;20.80;;;8.45;;
74152;SDS011;62505;46.070;14.492;2023-11-21T09:40:17;21.00;;;8.48;;
74152;SDS011;62505;46.070;14.492;2023-11-21T09:42:49;20.60;;;8.60;;
74152;SDS011;62505;46.070;14.492;2023-11-21T09:45:21;19.08;;;8.50;;
74152;SDS011;62505;46.070;14.492;2023-11-21T09:47:52;29.27;;;9.30;;
74152;SDS011;62505;46.070;14.492;2023-11-21T09:50:20;19.70;;;8.02;;
74152;SDS011;62505;46.070;14.492;2023-11-21T09:52:54;19.08;;;7.88;;
74152;SDS011;62505;46.070;14.492;2023-11-21T09:55:26;23.02;;;8.30;;
74152;SDS011;62505;46.070;14.492;2023-11-21T09:57:56;22.58;;;8.65;;
74152;SDS011;62505;46.070;14.492;2023-11-21T10:00:23;19.20;;;8.02;;
74152;SDS011;62505;46.070;14.492;2023-11-21T10:02:50;20.52;;;8.13;;
74152;SDS011;62505;46.070;14.492;2023-11-21T10:05:18;20.60;;;8.20;;
74152;SDS011;62505;46.070;14.492;2023-11-21T10:07:48;19.10;;;8.52;;
74152;SDS011;62505;46.070;14.492;2023-11-21T10:10:17;20.42;;;7.97;;
74152;SDS011;62505;46.070;14.492;2023-11-21T10:12:48;23.95;;;8.63;;
74152;SDS011;62505;46.070;14.492;2023-11-21T10:15:18;22.38;;;8.45;;
74152;SDS011;62505;46.070;14.492;2023-11-21T10:17:48;26.25;;;8.73;;
74152;SDS011;62505;46.070;14.492;2023-11-21T10:20:18;25.02;;;7.82;;
74152;SDS011;62505;46.070;14.492;2023-11-21T10:22:46;19.85;;;8.10;;
74152;SDS011;62505;46.070;14.492;2023-11-21T10:25:14;29.10;;;8.25;;
74152;SDS011;62505;46.070;14.492;2023-11-21T10:27:43;18.67;;;7.57;;
74152;SDS011;62505;46.070;14.492;2023-11-21T10:30:15;18.15;;;7.63;;
74152;SDS011;62505;46.070;14.492;2023-11-21T10:32:43;18.63;;;8.50;;
74152;SDS011;62505;46.070;14.492;2023-11-21T10:35:10;23.70;;;7.75;;
74152;SDS011;62505;46.070;14.492;2023-11-21T10:37:37;21.05;;;7.82;;
74152;SDS011;62505;46.070;14.492;2023-11-21T10:40:06;17.70;;;7.75;;
74152;SDS011;62505;46.070;14.492;2023-11-21T10:42:38;25.55;;;8.40;;
74152;SDS011;62505;46.070;14.492;2023-11-21T10:45:05;17.83;;;7.82;;
74152;SDS011;62505;46.070;14.492;2023-11-21T10:47:37;24.02;;;8.00;;
74152;SDS011;62505;46.070;14.492;2023-11-21T10:50:05;16.67;;;8.35;;
74152;SDS011;62505;46.070;14.492;2023-11-21T10:52:35;23.63;;;8.35;;
74152;SDS011;62505;46.070;14.492;2023-11-21T10:55:08;20.08;;;7.22;;
74152;SDS011;62505;46.070;14.492;2023-11-21T10:57:44;19.70;;;7.28;;
74152;SDS011;62505;46.070;14.492;2023-11-21T11:00:15;21.25;;;7.38;;
74152;SDS011;62505;46.070;14.492;2023-11-21T11:02:45;21.55;;;7.80;;
74152;SDS011;62505;46.070;14.492;2023-11-21T11:05:14;17.15;;;7.65;;
74152;SDS011;62505;46.070;14.492;2023-11-21T11:07:45;19.38;;;7.60;;
74152;SDS011;62505;46.070;14.492;2023-11-21T11:10:17;19.55;;;7.30;;
74152;SDS011;62505;46.070;14.492;2023-11-21T11:12:49;20.17;;;8.38;;
74152;SDS011;62505;46.070;14.492;2023-11-21T11:15:17;18.48;;;7.10;;
74152;SDS011;62505;46.070;14.492;2023-11-21T11:17:45;22.77;;;7.72;;
74152;SDS011;62505;46.070;14.492;2023-11-21T11:20:13;14.60;;;6.97;;
74152;SDS011;62505;46.070;14.492;2023-11-21T11:22:44;15.90;;;7.55;;
74152;SDS011;62505;46.070;14.492;2023-11-21T11:25:29;20.90;;;7.40;;
74152;SDS011;62505;46.070;14.492;2023-11-21T11:28:06;15.10;;;7.32;;
74152;SDS011;62505;46.070;14.492;2023-11-21T11:30:41;20.45;;;7.80;;
74152;SDS011;62505;46.070;14.492;2023-11-21T11:33:20;13.57;;;7.43;;
74152;SDS011;62505;46.070;14.492;2023-11-21T11:35:52;16.10;;;7.18;;
74152;SDS011;62505;46.070;14.492;2023-11-21T11:38:34;19.23;;;7.35;;
74152;SDS011;62505;46.070;14.492;2023-11-21T11:41:02;19.52;;;7.43;;
74152;SDS011;62505;46.070;14.492;2023-11-21T11:43:31;21.73;;;7.57;;
74152;SDS011;62505;46.070;14.492;2023-11-21T11:46:05;16.35;;;7.13;;
74152;SDS011;62505;46.070;14.492;2023-11-21T11:48:34;18.30;;;7.47;;
74152;SDS011;62505;46.070;14.492;2023-11-21T11:51:04;17.92;;;6.90;;
74152;SDS011;62505;46.070;14.492;2023-11-21T11:53:37;15.05;;;7.13;;
74152;SDS011;62505;46.070;14.492;2023-11-21T11:56:22;21.02;;;6.82;;
74152;SDS011;62505;46.070;14.492;2023-11-21T11:58:55;14.45;;;7.05;;
74152;SDS011;62505;46.070;14.492;2023-11-21T12:01:24;15.43;;;7.75;;
74152;SDS011;62505;46.070;14.492;2023-11-21T12:06:55;18.05;;;7.88;;
74152;SDS011;62505;46.070;14.492;2023-11-21T12:09:24;18.30;;;7.75;;
74152;SDS011;62505;46.070;14.492;2023-11-21T12:11:52;20.77;;;8.55;;
74152;SDS011;62505;46.070;14.492;2023-11-21T12:14:23;19.40;;;7.60;;
74152;SDS011;62505;46.070;14.492;2023-11-21T12:16:50;20.48;;;7.43;;
74152;SDS011;62505;46.070;14.492;2023-11-21T12:19:18;22.00;;;7.95;;
74152;SDS011;62505;46.070;14.492;2023-11-21T12:21:47;20.02;;;8.27;;
74152;SDS011;62505;46.070;14.492;2023-11-21T12:24:15;17.70;;;8.57;;
74152;SDS011;62505;46.070;14.492;2023-11-21T12:26:42;22.08;;;8.48;;
74152;SDS011;62505;46.070;14.492;2023-11-21T12:29:10;21.83;;;7.70;;
74152;SDS011;62505;46.070;14.492;2023-11-21T12:31:38;22.90;;;8.45;;
74152;SDS011;62505;46.070;14.492;2023-11-21T12:34:06;23.20;;;8.82;;
74152;SDS011;62505;46.070;14.492;2023-11-21T12:36:36;31.25;;;8.90;;
74152;SDS011;62505;46.070;14.492;2023-11-21T12:39:03;21.60;;;7.97;;
74152;SDS011;62505;46.070;14.492;2023-11-21T12:41:34;20.52;;;8.15;;
74152;SDS011;62505;46.070;14.492;2023-11-21T12:44:01;21.33;;;8.75;;
74152;SDS011;62505;46.070;14.492;2023-11-21T12:46:28;23.88;;;8.52;;
74152;SDS011;62505;46.070;14.492;2023-11-21T12:48:59;20.55;;;8.13;;
74152;SDS011;62505;46.070;14.492;2023-11-21T12:51:26;20.17;;;7.75;;
74152;SDS011;62505;46.070;14.492;2023-11-21T12:53:54;21.17;;;8.45;;
74152;SDS011;62505;46.070;14.492;2023-11-21T12:56:23;26.55;;;8.63;;
74152;SDS011;62505;46.070;14.492;2023-11-21T12:58:53;24.77;;;7.65;;
74152;SDS011;62505;46.070;14.492;2023-11-21T13:01:25;21.30;;;8.18;;
74152;SDS011;62505;46.070;14.492;2023-11-21T13:03:56;26.17;;;8.82;;
74152;SDS011;62505;46.070;14.492;2023-11-21T13:06:26;20.27;;;8.48;;
74152;SDS011;62505;46.070;14.492;2023-11-21T13:08:58;25.73;;;7.53;;
74152;SDS011;62505;46.070;14.492;2023-11-21T13:11:25;22.05;;;7.55;;
74152;SDS011;62505;46.070;14.492;2023-11-21T13:13:52;22.60;;;7.13;;
74152;SDS011;62505;46.070;14.492;2023-11-21T13:16:21;16.05;;;7.28;;
74152;SDS011;62505;46.070;14.492;2023-11-21T13:18:49;19.60;;;7.20;;
74152;SDS011;62505;46.070;14.492;2023-11-21T13:21:15;16.45;;;6.90;;
74152;SDS011;62505;46.070;14.492;2023-11-21T13:23:44;17.73;;;8.23;;
74152;SDS011;62505;46.070;14.492;2023-11-21T13:26:13;16.45;;;7.85;;
74152;SDS011;62505;46.070;14.492;2023-11-21T13:28:41;16.95;;;6.85;;
74152;SDS011;62505;46.070;14.492;2023-11-21T13:31:11;18.35;;;7.43;;
74152;SDS011;62505;46.070;14.492;2023-11-21T13:33:51;20.90;;;8.20;;
74152;SDS011;62505;46.070;14.492;2023-11-21T13:36:21;24.65;;;8.18;;
74152;SDS011;62505;46.070;14.492;2023-11-21T13:38:49;21.48;;;8.15;;
74152;SDS011;62505;46.070;14.492;2023-11-21T13:41:17;19.70;;;8.07;;
74152;SDS011;62505;46.070;14.492;2023-11-21T13:43:44;16.90;;;7.90;;
74152;SDS011;62505;46.070;14.492;2023-11-21T13:46:17;19.52;;;7.13;;
74152;SDS011;62505;46.070;14.492;2023-11-21T13:48:47;23.35;;;7.47;;
74152;SDS011;62505;46.070;14.492;2023-11-21T13:51:16;22.35;;;7.40;;
74152;SDS011;62505;46.070;14.492;2023-11-21T13:53:43;19.77;;;6.70;;
74152;SDS011;62505;46.070;14.492;2023-11-21T13:56:14;19.67;;;7.13;;
74152;SDS011;62505;46.070;14.492;2023-11-21T13:58:44;13.98;;;7.00;;
74152;SDS011;62505;46.070;14.492;2023-11-21T14:01:16;12.05;;;6.63;;
74152;SDS011;62505;46.070;14.492;2023-11-21T14:04:06;17.45;;;6.60;;
74152;SDS011;62505;46.070;14.492;2023-11-21T14:06:44;13.40;;;6.10;;
74152;SDS011;62505;46.070;14.492;2023-11-21T14:09:14;18.25;;;7.50;;
74152;SDS011;62505;46.070;14.492;2023-11-21T14:11:49;15.27;;;6.70;;
74152;SDS011;62505;46.070;14.492;2023-11-21T14:14:18;16.25;;;6.63;;
74152;SDS011;62505;46.070;14.492;2023-11-21T14:16:45;20.75;;;7.40;;
74152;SDS011;62505;46.070;14.492;2023-11-21T14:19:12;12.38;;;6.32;;
74152;SDS011;62505;46.070;14.492;2023-11-21T14:21:42;16.88;;;6.30;;
74152;SDS011;62505;46.070;14.492;2023-11-21T14:24:10;13.18;;;6.55;;
74152;SDS011;62505;46.070;14.492;2023-11-21T14:26:38;13.25;;;6.80;;
74152;SDS011;62505;46.070;14.492;2023-11-21T14:29:08;12.25;;;7.10;;
74152;SDS011;62505;46.070;14.492;2023-11-21T14:31:37;15.98;;;6.80;;